createdAt,value
2018-06-09T00:00:17.007Z,6.23
2018-06-09T00:02:46.233Z,6.47
2018-06-09T00:05:15.460Z,6.17
2018-06-09T00:07:44.677Z,5.80
2018-06-09T00:10:13.881Z,5.83
2018-06-09T00:12:43.133Z,6.00
2018-06-09T00:15:12.287Z,6.30
2018-06-09T00:17:41.494Z,5.90
2018-06-09T00:20:10.720Z,5.83
2018-06-09T00:22:39.922Z,6.17
2018-06-09T00:25:09.163Z,6.10
2018-06-09T00:27:38.461Z,5.83
2018-06-09T00:30:07.811Z,6.20
2018-06-09T00:32:37.017Z,5.17
2018-06-09T00:35:06.007Z,6.10
2018-06-09T00:37:36.006Z,5.47
2018-06-09T00:40:05.247Z,5.30
2018-06-09T00:42:34.502Z,5.57
2018-06-09T00:45:03.747Z,5.60
2018-06-09T00:47:33.112Z,5.40
2018-06-09T00:50:02.327Z,5.83
2018-06-09T00:52:31.524Z,6.00
2018-06-09T00:55:00.814Z,5.28
2018-06-09T00:57:30.029Z,5.63
2018-06-09T00:59:59.248Z,5.43
2018-06-09T01:02:28.475Z,5.30
2018-06-09T01:04:57.694Z,5.00
2018-06-09T01:07:26.677Z,5.40
2018-06-09T01:09:55.897Z,5.80
2018-06-09T01:12:25.116Z,5.23
2018-06-09T01:14:54.366Z,5.17
2018-06-09T01:17:23.605Z,4.50
2018-06-09T01:19:52.883Z,4.22
2018-06-09T01:22:22.094Z,4.73
2018-06-09T01:24:51.312Z,4.93
2018-06-09T01:27:20.530Z,4.70
2018-06-09T01:29:49.742Z,5.08
2018-06-09T01:32:18.974Z,4.50
2018-06-09T01:34:48.207Z,4.40
2018-06-09T01:37:17.414Z,5.03
2018-06-09T01:39:46.650Z,5.60
2018-06-09T01:42:15.877Z,5.58
2018-06-09T01:44:45.135Z,5.90
2018-06-09T01:47:45.410Z,5.70
2018-06-09T01:50:14.624Z,4.73
2018-06-09T01:52:44.382Z,4.70
2018-06-09T01:55:13.602Z,4.90
2018-06-09T01:57:42.814Z,4.95
2018-06-09T02:00:12.029Z,4.83
2018-06-09T02:02:41.245Z,4.87
2018-06-09T02:05:10.454Z,5.43
2018-06-09T02:07:39.675Z,5.17
2018-06-09T02:10:08.902Z,5.60
2018-06-09T02:12:38.180Z,5.40
2018-06-09T02:15:07.394Z,5.30
2018-06-09T02:17:36.711Z,5.70
2018-06-09T02:20:06.102Z,5.05
2018-06-09T02:22:35.302Z,5.10
2018-06-09T02:25:04.532Z,5.37
2018-06-09T02:27:33.758Z,5.27
2018-06-09T02:30:02.984Z,5.43
2018-06-09T02:32:32.191Z,4.70
2018-06-09T02:35:01.389Z,4.90
2018-06-09T02:37:30.614Z,4.40
2018-06-09T02:39:59.824Z,4.63
2018-06-09T02:42:29.051Z,5.03
2018-06-09T02:44:58.288Z,5.30
2018-06-09T02:47:27.519Z,5.10
2018-06-09T02:49:56.753Z,5.37
2018-06-09T02:52:26.044Z,5.40
2018-06-09T02:54:55.276Z,5.77
2018-06-09T02:57:24.478Z,5.43
2018-06-09T02:59:53.707Z,5.47
2018-06-09T03:02:23.174Z,4.53
2018-06-09T03:04:52.398Z,4.60
2018-06-09T03:07:21.646Z,4.73
2018-06-09T03:09:50.862Z,5.20
2018-06-09T03:12:20.093Z,4.93
2018-06-09T03:14:49.291Z,5.40
2018-06-09T03:17:18.487Z,5.23
2018-06-09T03:19:47.987Z,4.70
2018-06-09T03:22:17.189Z,5.30
2018-06-09T03:24:46.418Z,5.33
2018-06-09T03:27:15.643Z,5.97
2018-06-09T03:29:44.905Z,6.10
2018-06-09T03:32:14.135Z,5.67
2018-06-09T03:34:43.335Z,6.07
2018-06-09T03:37:12.564Z,5.83
2018-06-09T03:39:41.787Z,5.33
2018-06-09T03:42:11.007Z,5.47
2018-06-09T03:44:40.210Z,5.77
2018-06-09T03:47:09.431Z,5.80
2018-06-09T03:49:38.631Z,5.93
2018-06-09T03:52:07.850Z,5.47
2018-06-09T03:54:37.051Z,5.93
2018-06-09T03:57:06.283Z,6.37
2018-06-09T03:59:35.503Z,6.27
2018-06-09T04:02:05.068Z,6.20
2018-06-09T04:04:34.290Z,5.40
2018-06-09T04:07:03.530Z,5.77
2018-06-09T04:09:32.755Z,5.80
2018-06-09T04:12:01.967Z,5.30
2018-06-09T04:14:31.174Z,5.60
2018-06-09T04:17:00.430Z,5.47
2018-06-09T04:19:29.667Z,5.50
2018-06-09T04:21:58.868Z,5.60
2018-06-09T04:24:28.089Z,5.13
2018-06-09T04:26:57.320Z,5.30
2018-06-09T04:29:26.547Z,5.20
2018-06-09T04:31:55.780Z,5.20
2018-06-09T04:34:24.981Z,5.10
2018-06-09T04:36:54.193Z,5.33
2018-06-09T04:39:23.422Z,5.47
2018-06-09T04:41:52.663Z,5.27
2018-06-09T04:44:21.850Z,4.50
2018-06-09T04:46:51.084Z,4.80
2018-06-09T04:49:20.294Z,4.70
2018-06-09T04:51:49.522Z,4.40
2018-06-09T04:54:18.729Z,4.40
2018-06-09T04:56:47.943Z,4.50
2018-06-09T04:59:17.197Z,4.00
2018-06-09T05:01:46.411Z,4.28
2018-06-09T05:04:15.614Z,3.80
2018-06-09T05:06:44.835Z,4.10
2018-06-09T05:09:14.063Z,4.10
2018-06-09T05:11:43.279Z,3.60
2018-06-09T05:14:12.877Z,3.40
2018-06-09T05:16:42.079Z,3.23
2018-06-09T05:19:11.284Z,3.67
2018-06-09T05:21:40.502Z,3.90
2018-06-09T05:24:09.722Z,3.30
2018-06-09T05:26:38.950Z,3.73
2018-06-09T05:29:08.173Z,3.63
2018-06-09T05:31:37.383Z,3.53
2018-06-09T05:34:06.663Z,4.03
2018-06-09T05:36:35.924Z,4.20
2018-06-09T05:39:07.803Z,4.08
2018-06-09T05:41:37.069Z,3.80
2018-06-09T05:44:07.307Z,3.65
2018-06-09T05:46:36.511Z,3.40
2018-06-09T05:49:05.719Z,3.27
2018-06-09T05:51:35.022Z,3.70
2018-06-09T05:54:04.279Z,3.47
2018-06-09T05:56:33.518Z,3.08
2018-06-09T05:59:02.742Z,3.20
2018-06-09T06:01:32.302Z,3.33
2018-06-09T06:04:01.610Z,3.40
2018-06-09T06:06:30.810Z,3.20
2018-06-09T06:08:59.834Z,3.10
2018-06-09T06:11:29.059Z,3.80
2018-06-09T06:13:58.298Z,3.63
2018-06-09T06:16:27.517Z,3.50
2018-06-09T06:18:56.716Z,3.30
2018-06-09T06:21:25.941Z,3.20
2018-06-09T06:23:55.147Z,2.80
2018-06-09T06:26:24.370Z,3.10
2018-06-09T06:28:53.599Z,3.57
2018-06-09T06:31:22.830Z,4.03
2018-06-09T06:33:52.055Z,3.70
2018-06-09T06:36:21.269Z,3.67
2018-06-09T06:38:50.487Z,3.90
2018-06-09T06:41:19.711Z,3.62
2018-06-09T06:43:48.938Z,3.40
2018-06-09T06:46:18.163Z,3.60
2018-06-09T06:48:47.370Z,3.87
2018-06-09T06:51:16.587Z,3.80
2018-06-09T06:53:45.790Z,3.60
2018-06-09T06:56:15.025Z,3.80
2018-06-09T06:58:44.239Z,3.80
2018-06-09T07:01:13.605Z,3.70
2018-06-09T07:03:42.835Z,3.40
2018-06-09T07:06:12.069Z,3.85
2018-06-09T07:08:41.502Z,4.08
2018-06-09T07:11:10.720Z,3.70
2018-06-09T07:13:39.934Z,3.83
2018-06-09T07:16:09.154Z,3.80
2018-06-09T07:18:38.383Z,3.40
2018-06-09T07:21:07.263Z,3.85
2018-06-09T07:23:36.487Z,3.87
2018-06-09T07:26:06.091Z,4.07
2018-06-09T07:28:35.305Z,3.97
2018-06-09T07:31:04.518Z,4.03
2018-06-09T07:33:33.728Z,4.03
2018-06-09T07:36:02.946Z,4.47
2018-06-09T07:38:32.142Z,4.60
2018-06-09T07:41:01.369Z,4.30
2018-06-09T07:43:30.575Z,5.03
2018-06-09T07:45:59.780Z,4.20
2018-06-09T07:48:29.021Z,4.60
2018-06-09T07:50:58.223Z,4.43
2018-06-09T07:53:27.419Z,5.15
2018-06-09T07:55:56.691Z,5.20
2018-06-09T07:58:25.908Z,5.30
2018-06-09T08:00:55.105Z,5.63
2018-06-09T08:03:24.318Z,4.70
2018-06-09T08:05:53.522Z,5.33
2018-06-09T08:08:22.732Z,4.83
2018-06-09T08:10:51.939Z,5.60
2018-06-09T08:13:21.135Z,4.77
2018-06-09T08:15:50.335Z,5.10
2018-06-09T08:18:19.528Z,5.25
2018-06-09T08:20:48.766Z,5.60
2018-06-09T08:23:17.982Z,5.05
2018-06-09T08:25:47.188Z,5.53
2018-06-09T08:28:16.469Z,5.23
2018-06-09T08:30:45.675Z,4.72
2018-06-09T08:33:14.874Z,4.90
2018-06-09T08:35:44.091Z,5.00
2018-06-09T08:38:13.338Z,4.80
2018-06-09T08:40:42.315Z,5.12
2018-06-09T08:43:11.540Z,5.87
2018-06-09T08:45:40.784Z,5.42
2018-06-09T08:48:10.031Z,4.77
2018-06-09T08:50:39.261Z,5.80
2018-06-09T08:53:08.485Z,5.40
2018-06-09T08:55:38.047Z,5.65
2018-06-09T08:58:07.264Z,5.45
2018-06-09T09:00:36.514Z,5.80
2018-06-09T09:03:06.079Z,5.60
2018-06-09T09:05:35.263Z,5.90
2018-06-09T09:08:04.594Z,5.70
2018-06-09T09:10:33.831Z,5.70
2018-06-09T09:13:03.122Z,5.80
2018-06-09T09:15:32.374Z,5.88
2018-06-09T09:18:01.470Z,5.90
2018-06-09T09:20:30.678Z,5.80
2018-06-09T09:22:59.894Z,5.40
2018-06-09T09:25:29.115Z,6.27
2018-06-09T09:27:58.331Z,5.80
2018-06-09T09:30:27.567Z,6.08
2018-06-09T09:32:56.801Z,6.25
2018-06-09T09:35:26.024Z,6.20
2018-06-09T09:37:55.224Z,6.70
2018-06-09T09:40:24.490Z,5.97
2018-06-09T09:42:53.724Z,6.33
2018-06-09T09:45:22.985Z,5.55
2018-06-09T09:47:52.184Z,6.05
2018-06-09T09:50:21.462Z,6.30
2018-06-09T09:52:50.708Z,5.97
2018-06-09T09:55:19.962Z,6.03
2018-06-09T09:58:03.118Z,6.00
2018-06-09T10:00:37.368Z,6.00
2018-06-09T10:03:07.006Z,5.70
2018-06-09T10:05:36.246Z,5.90
2018-06-09T10:08:05.464Z,6.07
2018-06-09T10:10:34.694Z,6.13
2018-06-09T10:13:03.934Z,5.80
2018-06-09T10:15:33.223Z,5.47
2018-06-09T10:18:02.470Z,5.40
2018-06-09T10:20:31.719Z,5.90
2018-06-09T10:23:00.958Z,5.15
2018-06-09T10:25:30.183Z,6.20
2018-06-09T10:27:59.453Z,5.55
2018-06-09T10:30:28.647Z,5.57
2018-06-09T10:32:57.899Z,6.25
2018-06-09T10:35:27.119Z,5.47
2018-06-09T10:37:56.361Z,5.75
2018-06-09T10:40:25.596Z,5.62
2018-06-09T10:42:54.814Z,5.57
2018-06-09T10:45:24.067Z,5.70
2018-06-09T10:47:53.311Z,6.35
2018-06-09T10:50:22.581Z,5.62
2018-06-09T10:52:51.796Z,5.50
2018-06-09T10:55:21.041Z,5.50
2018-06-09T10:57:50.276Z,5.37
2018-06-09T11:00:19.495Z,5.10
2018-06-09T11:02:48.742Z,6.05
2018-06-09T11:05:17.991Z,5.57
2018-06-09T11:07:47.304Z,5.00
2018-06-09T11:10:16.609Z,5.55
2018-06-09T11:12:45.849Z,6.12
2018-06-09T11:15:14.886Z,5.78
2018-06-09T11:17:44.092Z,6.03
2018-06-09T11:20:13.317Z,6.00
2018-06-09T11:22:42.554Z,6.10
2018-06-09T11:25:11.527Z,5.67
2018-06-09T11:27:40.807Z,5.70
2018-06-09T11:30:10.007Z,5.30
2018-06-09T11:32:39.254Z,5.43
2018-06-09T11:35:08.255Z,5.10
2018-06-09T11:37:37.504Z,5.00
2018-06-09T11:40:06.724Z,8.18
2018-06-09T11:42:35.938Z,5.07
2018-06-09T11:45:05.265Z,5.28
2018-06-09T11:47:34.458Z,5.05
2018-06-09T11:50:03.703Z,4.80
2018-06-09T11:52:32.919Z,4.80
2018-06-09T11:55:02.107Z,4.97
2018-06-09T11:57:31.415Z,4.87
2018-06-09T12:00:00.617Z,4.30
2018-06-09T12:02:29.829Z,4.40
2018-06-09T12:04:59.118Z,4.10
2018-06-09T12:07:28.502Z,4.40
2018-06-09T12:09:57.806Z,4.33
2018-06-09T12:12:27.034Z,4.05
2018-06-09T12:14:56.268Z,4.45
2018-06-09T12:17:25.490Z,4.63
2018-06-09T12:19:54.718Z,4.67
2018-06-09T12:22:23.942Z,4.17
2018-06-09T12:24:53.160Z,4.10
2018-06-09T12:27:22.376Z,4.50
2018-06-09T12:29:51.598Z,4.53
2018-06-09T12:32:20.903Z,5.03
2018-06-09T12:34:50.148Z,4.25
2018-06-09T12:37:19.382Z,4.23
2018-06-09T12:39:48.686Z,4.50
2018-06-09T12:42:18.006Z,4.80
2018-06-09T12:44:47.243Z,5.10
2018-06-09T12:47:16.573Z,3.98
2018-06-09T12:49:45.793Z,4.37
2018-06-09T12:52:15.002Z,4.30
2018-06-09T12:54:44.283Z,4.28
2018-06-09T12:57:13.490Z,4.15
2018-06-09T12:59:42.723Z,3.40
2018-06-09T13:02:11.927Z,3.97
2018-06-09T13:04:41.143Z,3.23
2018-06-09T13:07:10.351Z,3.22
2018-06-09T13:09:39.556Z,3.20
2018-06-09T13:12:08.752Z,2.98
2018-06-09T13:14:38.779Z,3.43
2018-06-09T13:17:08.046Z,3.60
2018-06-09T13:19:37.278Z,3.35
2018-06-09T13:22:06.503Z,3.62
2018-06-09T13:24:35.715Z,4.03
2018-06-09T13:27:05.158Z,3.57
2018-06-09T13:29:34.387Z,3.83
2018-06-09T13:32:03.603Z,3.67
2018-06-09T13:36:56.247Z,3.85
2018-06-09T13:39:25.526Z,3.53
2018-06-09T13:41:54.734Z,3.80
2018-06-09T13:44:25.003Z,3.90
2018-06-09T13:46:54.241Z,3.75
2018-06-09T13:49:23.414Z,3.83
2018-06-09T13:51:52.628Z,3.55
2018-06-09T13:54:22.155Z,3.37
2018-06-09T13:56:51.337Z,3.58
2018-06-09T13:59:20.540Z,3.58
2018-06-09T14:01:49.763Z,3.58
2018-06-09T14:04:18.991Z,4.10
2018-06-09T14:06:48.250Z,3.90
2018-06-09T14:09:17.494Z,3.75
2018-06-09T14:11:46.710Z,3.70
2018-06-09T14:14:15.927Z,3.80
2018-06-09T14:16:45.164Z,3.80
2018-06-09T14:19:14.668Z,3.33
2018-06-09T14:21:43.629Z,3.92
2018-06-09T14:24:12.847Z,3.47
2018-06-09T14:26:42.036Z,3.43
2018-06-09T14:29:11.087Z,3.30
2018-06-09T14:31:40.922Z,3.62
2018-06-09T14:34:10.146Z,3.72
2018-06-09T14:36:39.346Z,3.62
2018-06-09T14:39:08.786Z,3.40
2018-06-09T14:41:37.986Z,4.08
2018-06-09T14:44:07.223Z,4.03
2018-06-09T14:46:36.429Z,3.70
2018-06-09T14:49:05.748Z,3.27
2018-06-09T14:51:34.987Z,3.80
2018-06-09T14:54:04.174Z,3.83
2018-06-09T14:56:33.390Z,4.00
2018-06-09T14:59:02.582Z,3.72
2018-06-09T15:01:31.790Z,3.90
2018-06-09T15:04:00.990Z,3.87
2018-06-09T15:06:30.308Z,3.92
2018-06-09T15:08:59.514Z,3.72
2018-06-09T15:11:28.754Z,4.33
2018-06-09T15:13:57.933Z,3.73
2018-06-09T15:16:27.135Z,3.83
2018-06-09T15:18:56.346Z,3.42
2018-06-09T15:21:25.579Z,3.33
2018-06-09T15:23:54.796Z,3.30
2018-06-09T15:26:24.078Z,3.97
2018-06-09T15:28:53.357Z,3.97
2018-06-09T15:31:22.570Z,4.30
2018-06-09T15:33:51.791Z,4.03
2018-06-09T15:36:21.045Z,4.43
2018-06-09T15:38:50.235Z,4.00
2018-06-09T15:41:19.450Z,3.98
2018-06-09T15:43:48.402Z,4.28
2018-06-09T15:46:17.685Z,3.90
2018-06-09T15:48:46.893Z,4.47
2018-06-09T15:51:16.192Z,4.47
2018-06-09T15:53:45.391Z,4.12
2018-06-09T15:56:14.603Z,3.47
2018-06-09T15:58:43.812Z,3.70
2018-06-09T16:01:13.042Z,3.63
2018-06-09T16:03:42.266Z,3.27
2018-06-09T16:06:11.492Z,3.60
2018-06-09T16:08:40.701Z,3.50
2018-06-09T16:11:09.919Z,4.35
2018-06-09T16:13:39.111Z,3.60
2018-06-09T16:16:08.307Z,3.43
2018-06-09T16:18:37.530Z,3.55
2018-06-09T16:21:06.758Z,3.60
2018-06-09T16:26:08.634Z,3.95
2018-06-09T16:28:37.841Z,4.17
2018-06-09T16:31:07.108Z,4.43
2018-06-09T16:33:36.456Z,4.08
2018-06-09T16:36:05.963Z,4.55
2018-06-09T16:38:35.196Z,5.00
2018-06-09T16:41:04.374Z,4.53
2018-06-09T16:43:33.584Z,4.60
2018-06-09T16:46:02.810Z,4.78
2018-06-09T16:48:32.033Z,5.12
2018-06-09T16:51:01.238Z,5.00
2018-06-09T16:53:30.442Z,5.03
2018-06-09T16:55:59.668Z,4.72
2018-06-09T16:58:28.894Z,5.37
2018-06-09T17:00:58.114Z,5.45
2018-06-09T17:03:27.342Z,5.12
2018-06-09T17:05:56.634Z,5.77
2018-06-09T17:08:25.843Z,5.08
2018-06-09T17:10:55.050Z,5.03
2018-06-09T17:13:24.287Z,4.50
2018-06-09T17:15:53.496Z,5.30
2018-06-09T17:18:22.585Z,4.90
2018-06-09T17:20:51.806Z,5.15
2018-06-09T17:23:20.772Z,4.55
2018-06-09T17:25:50.043Z,4.67
2018-06-09T17:28:19.291Z,4.37
2018-06-09T17:30:48.571Z,5.10
2018-06-09T17:33:18.687Z,4.66
2018-06-09T17:35:47.923Z,6.37
2018-06-09T17:38:17.147Z,8.87
2018-06-09T17:40:46.420Z,5.70
2018-06-09T17:43:15.617Z,5.60
2018-06-09T17:45:46.124Z,4.70
2018-06-09T17:48:15.368Z,5.10
2018-06-09T17:50:44.582Z,6.23
2018-06-09T17:53:13.778Z,5.47
2018-06-09T17:55:43.055Z,5.78
2018-06-09T17:58:12.339Z,5.42
2018-06-09T18:00:41.551Z,5.30
2018-06-09T18:03:10.855Z,5.70
2018-06-09T18:05:40.076Z,5.43
2018-06-09T18:08:09.307Z,5.80
2018-06-09T18:10:38.530Z,6.75
2018-06-09T18:13:07.750Z,6.10
2018-06-09T18:15:36.968Z,7.60
2018-06-09T18:18:06.208Z,7.13
2018-06-09T18:20:35.427Z,7.25
2018-06-09T18:23:04.765Z,7.22
2018-06-09T18:25:33.897Z,6.87
2018-06-09T18:28:08.672Z,6.87
2018-06-09T18:30:37.872Z,7.10
2018-06-09T18:33:07.077Z,6.72
2018-06-09T18:35:36.291Z,7.47
2018-06-09T18:38:05.515Z,6.80
2018-06-09T18:40:34.734Z,6.57
2018-06-09T18:43:03.963Z,6.33
2018-06-09T18:45:33.195Z,6.67
2018-06-09T18:48:02.408Z,5.95
2018-06-09T18:50:31.626Z,6.50
2018-06-09T18:53:00.838Z,6.93
2018-06-09T18:55:30.051Z,6.93
2018-06-09T18:57:59.322Z,7.20
2018-06-09T19:00:28.627Z,7.58
2018-06-09T19:02:57.850Z,7.50
2018-06-09T19:05:27.069Z,7.60
2018-06-09T19:07:56.303Z,7.27
2018-06-09T19:33:58.938Z,7.85
2018-06-09T19:36:28.287Z,7.85
2018-06-09T19:38:57.568Z,8.93
2018-06-09T19:41:26.781Z,8.57
2018-06-09T19:43:56.035Z,8.60
2018-06-09T19:46:25.240Z,8.53
2018-06-09T19:48:54.441Z,7.70
2018-06-09T19:51:23.684Z,8.27
2018-06-09T19:53:52.989Z,9.90
2018-06-09T19:56:22.201Z,9.70
2018-06-09T19:58:51.429Z,8.20
2018-06-09T20:01:20.402Z,8.67
2018-06-09T20:03:49.608Z,8.53
2018-06-09T20:06:18.892Z,7.70
2018-06-09T20:08:48.112Z,7.90
2018-06-09T20:11:17.323Z,8.50
2018-06-09T20:13:46.518Z,8.80
2018-06-09T20:16:15.745Z,8.33
2018-06-09T20:18:44.978Z,8.77
2018-06-09T20:21:14.261Z,7.75
2018-06-09T20:23:43.519Z,8.73
2018-06-09T20:26:12.799Z,8.83
2018-06-09T20:28:42.024Z,8.74
2018-06-09T20:31:11.246Z,8.88
2018-06-09T20:33:40.527Z,8.88
2018-06-09T20:36:09.782Z,8.30
2018-06-09T20:38:40.221Z,8.38
2018-06-09T20:41:09.194Z,7.15
2018-06-09T20:43:38.434Z,7.03
2018-06-09T20:46:07.770Z,7.47
2018-06-09T20:48:36.946Z,7.47
2018-06-09T20:51:06.287Z,7.07
2018-06-09T20:53:35.495Z,7.83
2018-06-09T20:56:04.738Z,7.50
2018-06-09T20:58:39.049Z,8.68
2018-06-09T21:01:08.602Z,8.38
2018-06-09T21:03:37.843Z,8.80
2018-06-09T21:06:07.068Z,8.80
2018-06-09T21:08:36.260Z,9.75
2018-06-09T21:11:05.487Z,10.13
2018-06-09T21:13:34.729Z,9.28
2018-06-09T21:16:03.974Z,10.03
2018-06-09T21:18:33.170Z,9.40
2018-06-09T21:21:02.400Z,10.00
2018-06-09T21:23:31.605Z,9.65
2018-06-09T21:26:00.815Z,8.58
2018-06-09T21:28:34.099Z,8.50
2018-06-09T21:31:08.595Z,8.50
2018-06-09T21:33:59.922Z,9.50
2018-06-09T21:36:30.244Z,9.50
2018-06-09T21:39:00.343Z,10.03
2018-06-09T21:41:35.331Z,8.60
2018-06-09T21:44:09.665Z,9.47
2018-06-09T21:46:44.870Z,9.47
2018-06-09T21:49:14.379Z,8.47
2018-06-09T21:51:43.604Z,8.63
2018-06-09T21:54:13.063Z,9.36
2018-06-09T21:56:42.304Z,9.53
2018-06-09T21:59:11.595Z,8.47
2018-06-09T22:01:40.837Z,9.67
2018-06-09T22:04:10.047Z,9.85
2018-06-09T22:06:39.274Z,9.40
2018-06-09T22:09:08.481Z,9.45
2018-06-09T22:11:37.711Z,9.05
2018-06-09T22:14:07.024Z,8.33
2018-06-09T22:16:36.240Z,8.67
2018-06-09T22:19:05.447Z,9.13
2018-06-09T22:21:34.656Z,8.27
2018-06-09T22:24:03.863Z,8.17
2018-06-09T22:26:33.101Z,8.28
2018-06-09T22:29:02.317Z,8.40
2018-06-09T22:31:31.546Z,7.65
2018-06-09T22:34:00.752Z,7.47
2018-06-09T22:36:29.963Z,8.20
2018-06-09T22:38:59.171Z,8.88
2018-06-09T22:41:28.377Z,8.50
2018-06-09T22:43:57.856Z,9.60
2018-06-09T22:46:27.073Z,9.43
2018-06-09T22:48:56.294Z,9.57
2018-06-09T22:51:25.527Z,8.97
2018-06-09T22:53:54.748Z,8.77
2018-06-09T22:56:24.078Z,8.70
2018-06-09T22:58:53.366Z,7.87
2018-06-09T23:01:22.603Z,8.50
2018-06-09T23:03:51.830Z,8.78
2018-06-09T23:06:21.055Z,8.83
2018-06-09T23:08:50.263Z,8.27
2018-06-09T23:11:19.494Z,8.97
2018-06-09T23:14:20.070Z,7.87
2018-06-09T23:16:50.164Z,6.87
2018-06-09T23:19:19.398Z,7.10
2018-06-09T23:21:48.627Z,7.30
2018-06-09T23:24:17.926Z,6.50
2018-06-09T23:26:47.160Z,6.40
2018-06-09T23:29:16.389Z,6.58
2018-06-09T23:31:45.634Z,6.30
2018-06-09T23:34:14.927Z,6.73
2018-06-09T23:36:44.178Z,6.87
2018-06-09T23:39:13.410Z,6.70
2018-06-09T23:41:42.617Z,6.83
2018-06-09T23:44:11.841Z,6.97
2018-06-09T23:46:41.083Z,6.60
2018-06-09T23:49:10.362Z,6.70
2018-06-09T23:51:39.614Z,7.20
2018-06-09T23:54:08.859Z,7.90
2018-06-09T23:56:38.175Z,7.50
2018-06-09T23:59:07.392Z,7.90
